createdAt,value
2023-03-27T00:01:30.936Z,101875.94
2023-03-27T00:03:33.764Z,101878.44
2023-03-27T00:05:36.060Z,101879.31
2023-03-27T00:07:41.788Z,101883.63
2023-03-27T00:09:44.541Z,101885.31
2023-03-27T00:11:46.988Z,101891.31
2023-03-27T00:13:51.275Z,101893.38
2023-03-27T00:15:55.242Z,101896.00
2023-03-27T00:17:58.998Z,101884.97
2023-03-27T00:20:01.339Z,101890.38
2023-03-27T00:22:04.003Z,101896.00
2023-03-27T00:24:07.145Z,101892.66
2023-03-27T00:26:09.330Z,101908.13
2023-03-27T00:28:11.598Z,101912.53
2023-03-27T00:30:14.354Z,101914.50
2023-03-27T00:32:16.772Z,101909.50
2023-03-27T00:34:18.939Z,101909.50
2023-03-27T00:36:22.149Z,101914.19
2023-03-27T00:38:24.655Z,101928.13
2023-03-27T00:40:27.405Z,101930.53
2023-03-27T00:42:30.717Z,101926.28
2023-03-27T00:44:34.684Z,101928.78
2023-03-27T00:46:41.867Z,101924.75
2023-03-27T00:48:48.561Z,101934.56
2023-03-27T00:50:51.881Z,101925.50
2023-03-27T00:52:59.916Z,101933.91
2023-03-27T00:55:07.894Z,101939.09
2023-03-27T00:57:14.632Z,101943.81
2023-03-27T00:59:20.222Z,101951.19
2023-03-27T01:01:26.490Z,101958.44
2023-03-27T01:03:32.630Z,101962.28
2023-03-27T01:05:36.500Z,101961.47
2023-03-27T01:07:40.854Z,101961.41
2023-03-27T01:10:05.508Z,101963.72
2023-03-27T01:12:13.965Z,101962.84
2023-03-27T01:14:24.541Z,101960.34
2023-03-27T01:16:34.005Z,101967.16
2023-03-27T01:18:38.974Z,101972.22
2023-03-27T01:20:45.822Z,101970.47
2023-03-27T01:22:54.429Z,101962.72
2023-03-27T01:24:57.487Z,101962.47
2023-03-27T01:27:04.093Z,101974.84
2023-03-27T01:29:08.044Z,101972.16
2023-03-27T01:31:16.823Z,101962.31
2023-03-27T01:33:26.768Z,101963.50
2023-03-27T01:35:32.717Z,101961.91
2023-03-27T01:37:50.623Z,101960.63
2023-03-27T01:39:57.484Z,101980.59
2023-03-27T01:42:06.532Z,101976.47
2023-03-27T01:44:17.405Z,101975.53
2023-03-27T01:46:23.491Z,101973.09
2023-03-27T01:48:33.003Z,101973.44
2023-03-27T01:50:39.613Z,101984.97
2023-03-27T01:52:47.014Z,101981.53
2023-03-27T01:54:58.338Z,101980.88
2023-03-27T01:57:10.509Z,101978.09
2023-03-27T01:59:17.563Z,101972.97
2023-03-27T02:01:24.457Z,101977.28
2023-03-27T02:03:33.970Z,101984.03
2023-03-27T02:05:39.015Z,101989.22
2023-03-27T02:07:49.057Z,101986.53
2023-03-27T02:09:56.858Z,101988.03
2023-03-27T02:12:03.410Z,101988.75
2023-03-27T02:14:11.858Z,101993.22
2023-03-27T02:16:19.053Z,102008.69
2023-03-27T02:18:29.653Z,102016.81
2023-03-27T02:20:34.504Z,102023.97
2023-03-27T02:22:39.211Z,102025.00
2023-03-27T02:24:43.638Z,102022.56
2023-03-27T02:26:50.596Z,102028.44
2023-03-27T02:28:54.658Z,102025.22
2023-03-27T02:31:06.309Z,102028.97
2023-03-27T02:33:30.370Z,102025.94
2023-03-27T02:35:38.800Z,102031.53
2023-03-27T02:37:47.418Z,102029.31
2023-03-27T02:39:50.448Z,102024.19
2023-03-27T02:42:02.110Z,102017.69
2023-03-27T02:44:12.469Z,102022.19
2023-03-27T02:46:18.147Z,102027.41
2023-03-27T02:48:26.613Z,102041.91
2023-03-27T02:50:36.536Z,102043.66
2023-03-27T02:52:44.506Z,102045.50
2023-03-27T02:54:54.055Z,102041.72
2023-03-27T02:57:01.719Z,102036.06
2023-03-27T02:59:10.500Z,102039.50
2023-03-27T03:01:16.922Z,102051.50
2023-03-27T03:03:28.295Z,102050.63
2023-03-27T03:05:30.477Z,102051.28
2023-03-27T03:07:34.867Z,102065.38
2023-03-27T03:09:40.366Z,102079.06
2023-03-27T03:11:48.681Z,102080.44
2023-03-27T03:13:50.785Z,102077.88
2023-03-27T03:15:52.997Z,102075.69
2023-03-27T03:17:55.336Z,102090.28
2023-03-27T03:19:57.527Z,102096.06
2023-03-27T03:22:01.344Z,102091.38
2023-03-27T03:24:03.803Z,102091.16
2023-03-27T03:26:07.391Z,102091.53
2023-03-27T03:28:10.804Z,102094.09
2023-03-27T03:30:17.290Z,102099.00
2023-03-27T03:32:19.850Z,102108.38
2023-03-27T03:34:22.756Z,102104.06
2023-03-27T03:36:24.943Z,102110.06
2023-03-27T03:38:29.849Z,102109.25
2023-03-27T03:40:40.039Z,102105.22
2023-03-27T03:42:46.949Z,102107.88
2023-03-27T03:44:49.333Z,102108.69
2023-03-27T03:46:51.452Z,102114.13
2023-03-27T03:48:53.821Z,102115.88
2023-03-27T03:50:56.310Z,102115.00
2023-03-27T03:52:58.779Z,102119.47
2023-03-27T03:55:00.965Z,102123.78
2023-03-27T03:57:03.504Z,102128.03
2023-03-27T03:59:05.806Z,102129.53
2023-03-27T04:01:09.287Z,102125.31
2023-03-27T04:03:11.530Z,102138.50
2023-03-27T04:05:13.748Z,102136.81
2023-03-27T04:07:17.957Z,102140.31
2023-03-27T04:09:20.104Z,102151.28
2023-03-27T04:11:22.450Z,102142.56
2023-03-27T04:13:24.803Z,102147.63
2023-03-27T04:15:27.731Z,102150.78
2023-03-27T04:17:30.215Z,102151.59
2023-03-27T04:19:32.524Z,102159.03
2023-03-27T04:21:34.698Z,102163.44
2023-03-27T04:23:36.906Z,102171.81
2023-03-27T04:25:40.458Z,102159.25
2023-03-27T04:27:43.734Z,102162.69
2023-03-27T04:29:47.742Z,102169.25
2023-03-27T04:31:49.869Z,102167.41
2023-03-27T04:33:52.626Z,102169.34
2023-03-27T04:36:05.521Z,102173.03
2023-03-27T04:38:09.783Z,102170.75
2023-03-27T04:40:14.455Z,102176.31
2023-03-27T04:42:16.634Z,102173.03
2023-03-27T04:44:19.145Z,102172.94
2023-03-27T04:46:21.400Z,102179.75
2023-03-27T04:48:23.562Z,102180.56
2023-03-27T04:50:25.884Z,102177.03
2023-03-27T04:52:29.902Z,102178.78
2023-03-27T04:54:32.039Z,102179.03
2023-03-27T04:56:35.321Z,102182.16
2023-03-27T04:58:37.964Z,102176.38
2023-03-27T05:00:40.802Z,102177.13
2023-03-27T05:02:43.269Z,102188.41
2023-03-27T05:04:45.971Z,102186.63
2023-03-27T05:06:48.369Z,102187.34
2023-03-27T05:08:51.485Z,102189.84
2023-03-27T05:10:53.761Z,102179.59
2023-03-27T05:12:58.319Z,102189.84
2023-03-27T05:15:04.220Z,102195.03
2023-03-27T05:17:07.096Z,102183.91
2023-03-27T05:19:09.314Z,102191.22
2023-03-27T05:21:12.578Z,102190.63
2023-03-27T05:23:14.755Z,102193.91
2023-03-27T05:25:17.391Z,102199.19
2023-03-27T05:27:19.698Z,102200.72
2023-03-27T05:29:21.980Z,102197.78
2023-03-27T05:31:25.222Z,102203.28
2023-03-27T05:33:27.372Z,102213.94
2023-03-27T05:35:29.987Z,102204.44
2023-03-27T05:37:32.123Z,102208.81
2023-03-27T05:39:36.958Z,102214.13
2023-03-27T05:41:39.423Z,102217.75
2023-03-27T05:43:41.985Z,102220.16
2023-03-27T05:45:44.850Z,102210.72
2023-03-27T05:47:52.195Z,102216.31
2023-03-27T05:49:54.448Z,102216.16
2023-03-27T05:51:57.175Z,102225.28
2023-03-27T05:53:59.407Z,102222.00
2023-03-27T05:56:03.265Z,102224.94
2023-03-27T05:58:10.174Z,102238.00
2023-03-27T06:00:16.120Z,102240.88
2023-03-27T06:02:21.085Z,102242.84
2023-03-27T06:04:23.737Z,102240.38
2023-03-27T06:06:27.082Z,102252.28
2023-03-27T06:08:30.032Z,102249.00
2023-03-27T06:10:34.488Z,102249.09
2023-03-27T06:12:38.125Z,102245.09
2023-03-27T06:14:40.210Z,102249.81
2023-03-27T06:16:43.083Z,102252.44
2023-03-27T06:18:45.340Z,102257.47
2023-03-27T06:20:47.433Z,102254.31
2023-03-27T06:22:52.075Z,102256.69
2023-03-27T06:24:54.336Z,102257.91
2023-03-27T06:26:56.444Z,102259.72
2023-03-27T06:28:58.805Z,102263.94
2023-03-27T06:31:01.017Z,102273.09
2023-03-27T06:33:03.769Z,102273.09
2023-03-27T06:35:07.937Z,102281.41
2023-03-27T06:37:10.610Z,102277.88
2023-03-27T06:39:12.902Z,102282.97
2023-03-27T06:41:15.115Z,102285.41
2023-03-27T06:43:19.283Z,102282.13
2023-03-27T06:45:23.376Z,102283.66
2023-03-27T06:47:25.634Z,102288.09
2023-03-27T06:49:27.928Z,102298.22
2023-03-27T06:51:30.174Z,102296.66
2023-03-27T06:53:35.954Z,102296.09
2023-03-27T06:55:40.968Z,102297.94
2023-03-27T06:57:45.367Z,102312.81
2023-03-27T06:59:47.889Z,102305.16
2023-03-27T07:01:52.708Z,102304.66
2023-03-27T07:03:54.968Z,102312.03
2023-03-27T07:05:57.608Z,102309.59
2023-03-27T07:08:05.440Z,102307.03
2023-03-27T07:10:17.908Z,102309.34
2023-03-27T07:12:20.058Z,102316.34
2023-03-27T07:14:22.609Z,102320.50
2023-03-27T07:16:25.279Z,102323.22
2023-03-27T07:18:27.669Z,102327.63
2023-03-27T07:20:31.709Z,102332.94
2023-03-27T07:22:34.138Z,102329.00
2023-03-27T07:24:36.394Z,102327.50
2023-03-27T07:26:38.672Z,102334.03
2023-03-27T07:28:40.927Z,102333.31
2023-03-27T07:30:43.573Z,102341.16
2023-03-27T07:32:47.334Z,102340.13
2023-03-27T07:34:49.668Z,102333.41
2023-03-27T07:36:51.830Z,102336.13
2023-03-27T07:38:53.962Z,102343.94
2023-03-27T07:40:58.150Z,102339.75
2023-03-27T07:43:00.532Z,102342.47
2023-03-27T07:45:04.543Z,102339.59
2023-03-27T07:47:07.266Z,102340.88
2023-03-27T07:49:09.817Z,102347.84
2023-03-27T07:51:14.091Z,102348.94
2023-03-27T07:53:34.184Z,102350.50
2023-03-27T07:55:38.178Z,102345.91
2023-03-27T07:59:49.874Z,102350.31
2023-03-27T08:01:52.068Z,102352.19
2023-03-27T08:03:54.608Z,102346.78
2023-03-27T08:05:59.200Z,102357.50
2023-03-27T08:08:01.696Z,102359.53
2023-03-27T08:10:06.655Z,102363.84
2023-03-27T08:12:08.888Z,102367.84
2023-03-27T08:14:11.118Z,102363.84
2023-03-27T08:16:17.818Z,102372.16
2023-03-27T08:18:20.182Z,102374.31
2023-03-27T08:20:23.903Z,102382.78
2023-03-27T08:22:26.389Z,102382.34
2023-03-27T08:24:29.031Z,102380.75
2023-03-27T08:26:32.745Z,102381.53
2023-03-27T08:28:37.369Z,102378.19
2023-03-27T08:30:39.638Z,102384.31
2023-03-27T08:32:44.269Z,102383.28
2023-03-27T08:34:46.933Z,102389.19
2023-03-27T08:36:49.135Z,102391.22
2023-03-27T08:38:51.795Z,102389.63
2023-03-27T08:40:59.420Z,102388.41
2023-03-27T08:43:07.577Z,102392.81
2023-03-27T08:45:21.189Z,102392.22
2023-03-27T08:47:29.911Z,102393.19
2023-03-27T08:49:36.863Z,102395.13
2023-03-27T08:51:45.490Z,102397.19
2023-03-27T08:53:54.155Z,102397.34
2023-03-27T08:55:56.811Z,102405.22
2023-03-27T08:57:59.454Z,102401.69
2023-03-27T09:00:02.844Z,102409.66
2023-03-27T09:02:12.026Z,102407.34
2023-03-27T09:04:21.537Z,102400.97
2023-03-27T09:06:37.189Z,102407.63
2023-03-27T09:08:43.078Z,102404.59
2023-03-27T09:10:49.903Z,102409.81
2023-03-27T09:12:58.777Z,102410.44
2023-03-27T09:15:23.394Z,102408.31
2023-03-27T09:17:33.079Z,102405.66
2023-03-27T09:19:45.974Z,102409.97
2023-03-27T09:21:58.166Z,102405.53
2023-03-27T09:24:02.594Z,102407.88
2023-03-27T09:26:20.178Z,102411.91
2023-03-27T09:28:26.413Z,102415.06
2023-03-27T09:30:32.036Z,102420.56
2023-03-27T09:32:35.218Z,102417.50
2023-03-27T09:34:38.016Z,102413.34
2023-03-27T09:36:42.082Z,102408.56
2023-03-27T09:38:50.959Z,102411.69
2023-03-27T09:40:57.541Z,102408.19
2023-03-27T09:43:09.882Z,102412.22
2023-03-27T09:45:13.960Z,102408.31
2023-03-27T09:47:33.899Z,102410.81
2023-03-27T09:49:39.127Z,102411.94
2023-03-27T09:51:47.018Z,102419.88
2023-03-27T09:53:56.268Z,102421.91
2023-03-27T09:56:04.149Z,102420.44
2023-03-27T09:58:23.989Z,102411.72
2023-03-27T10:00:31.499Z,102408.00
2023-03-27T10:02:33.932Z,102413.53
2023-03-27T10:04:37.025Z,102417.31
2023-03-27T10:06:44.230Z,102417.47
2023-03-27T10:08:50.739Z,102414.56
2023-03-27T10:10:58.225Z,102418.31
2023-03-27T10:13:01.573Z,102416.97
2023-03-27T10:15:07.302Z,102417.56
2023-03-27T10:17:15.946Z,102416.44
2023-03-27T10:19:24.226Z,102414.75
2023-03-27T10:21:32.055Z,102416.91
2023-03-27T10:23:40.942Z,102409.25
2023-03-27T10:25:51.678Z,102409.03
2023-03-27T10:27:55.193Z,102414.66
2023-03-27T10:29:58.176Z,102413.84
2023-03-27T10:32:02.399Z,102424.06
2023-03-27T10:34:07.674Z,102419.63
2023-03-27T10:36:14.811Z,102417.72
2023-03-27T10:38:18.888Z,102422.84
2023-03-27T10:40:26.443Z,102412.56
2023-03-27T10:42:32.966Z,102419.47
2023-03-27T10:44:37.994Z,102418.03
2023-03-27T10:46:41.375Z,102427.25
2023-03-27T10:48:49.904Z,102412.00
2023-03-27T10:50:57.811Z,102408.78
2023-03-27T10:53:07.650Z,102416.28
2023-03-27T10:55:13.351Z,102418.72
2023-03-27T10:57:21.522Z,102404.97
2023-03-27T10:59:41.135Z,102411.88
2023-03-27T11:01:52.731Z,102414.25
2023-03-27T11:04:03.681Z,102413.75
2023-03-27T11:06:13.169Z,102412.41
2023-03-27T11:08:21.925Z,102412.16
2023-03-27T11:10:31.856Z,102413.19
2023-03-27T11:12:38.253Z,102409.94
2023-03-27T11:14:46.601Z,102411.84
2023-03-27T11:16:56.821Z,102411.97
2023-03-27T11:19:03.810Z,102409.31
2023-03-27T11:21:13.039Z,102409.09
2023-03-27T11:23:19.054Z,102415.06
2023-03-27T11:25:25.802Z,102410.84
2023-03-27T11:27:34.689Z,102408.75
2023-03-27T11:29:44.537Z,102410.94
2023-03-27T11:31:51.462Z,102410.09
2023-03-27T11:34:00.916Z,102417.28
2023-03-27T11:36:10.309Z,102410.56
2023-03-27T11:38:23.277Z,102419.97
2023-03-27T11:40:31.079Z,102417.75
2023-03-27T11:42:39.599Z,102421.97
2023-03-27T11:44:42.989Z,102422.19
2023-03-27T11:46:52.395Z,102427.25
2023-03-27T11:49:01.206Z,102417.75
2023-03-27T11:51:09.119Z,102412.22
2023-03-27T11:53:16.956Z,102410.13
2023-03-27T11:55:25.111Z,102408.66
2023-03-27T11:57:27.761Z,102407.88
2023-03-27T11:59:33.466Z,102406.53
2023-03-27T12:01:44.903Z,102411.19
2023-03-27T12:04:09.482Z,102410.53
2023-03-27T12:06:22.916Z,102409.56
2023-03-27T12:08:29.529Z,102412.78
2023-03-27T12:10:35.307Z,102407.53
2023-03-27T12:12:41.790Z,102412.84
2023-03-27T12:14:48.556Z,102423.31
2023-03-27T12:16:55.102Z,102409.28
2023-03-27T12:19:08.128Z,102414.06
2023-03-27T12:21:24.180Z,102417.44
2023-03-27T12:23:32.527Z,102416.63
2023-03-27T12:25:48.717Z,102414.00
2023-03-27T12:27:54.329Z,102410.97
2023-03-27T12:30:02.602Z,102413.16
2023-03-27T12:32:25.866Z,102406.66
2023-03-27T12:34:57.287Z,102410.56
2023-03-27T12:37:01.964Z,102412.84
2023-03-27T12:39:18.741Z,102421.06
2023-03-27T12:41:24.480Z,102422.97
2023-03-27T12:43:29.638Z,102420.94
2023-03-27T12:45:33.180Z,102421.97
2023-03-27T12:47:38.238Z,102419.91
2023-03-27T12:49:56.704Z,102417.28
2023-03-27T12:52:02.858Z,102410.00
2023-03-27T12:54:32.420Z,102414.16
2023-03-27T12:56:37.424Z,102415.81
2023-03-27T12:58:41.212Z,102421.91
2023-03-27T13:00:53.946Z,102420.63
2023-03-27T13:03:19.645Z,102415.22
2023-03-27T13:05:33.598Z,102416.84
2023-03-27T13:08:07.311Z,102420.47
2023-03-27T13:10:21.071Z,102412.28
2023-03-27T13:12:43.470Z,102415.28
2023-03-27T13:15:01.123Z,102414.59
2023-03-27T13:17:32.946Z,102409.69
2023-03-27T13:19:46.069Z,102407.38
2023-03-27T13:22:13.861Z,102411.53
2023-03-27T13:24:43.886Z,102403.38
2023-03-27T13:27:21.767Z,102402.59
2023-03-27T13:29:54.150Z,102400.97
2023-03-27T13:32:09.421Z,102401.41
2023-03-27T13:34:37.438Z,102397.19
2023-03-27T13:36:48.105Z,102394.41
2023-03-27T13:38:52.903Z,102396.22
2023-03-27T13:40:54.735Z,102395.38
2023-03-27T13:43:07.160Z,102396.47
2023-03-27T13:45:20.852Z,102405.75
2023-03-27T13:47:25.679Z,102407.31
2023-03-27T13:49:34.287Z,102411.34
2023-03-27T13:51:38.918Z,102401.69
2023-03-27T13:53:51.167Z,102401.16
2023-03-27T13:56:24.568Z,102396.47
2023-03-27T13:58:49.363Z,102399.72
2023-03-27T14:01:22.799Z,102395.31
2023-03-27T14:03:46.295Z,102399.72
2023-03-27T14:06:13.240Z,102400.09
2023-03-27T14:08:36.772Z,102399.41
2023-03-27T14:10:47.098Z,102404.16
2023-03-27T14:13:18.250Z,102401.97
2023-03-27T14:15:45.082Z,102400.69
2023-03-27T14:18:25.848Z,102398.81
2023-03-27T14:20:40.209Z,102392.72
2023-03-27T14:23:17.610Z,102393.09
2023-03-27T14:25:23.790Z,102389.03
2023-03-27T14:27:26.596Z,102394.13
2023-03-27T14:29:29.144Z,102393.22
2023-03-27T14:31:35.900Z,102398.75
2023-03-27T14:33:39.283Z,102385.00
2023-03-27T14:35:46.670Z,102383.75
2023-03-27T14:37:55.935Z,102383.47
2023-03-27T14:40:00.960Z,102390.72
2023-03-27T14:42:03.595Z,102392.28
2023-03-27T14:44:05.292Z,102391.50
2023-03-27T14:46:08.100Z,102389.06
2023-03-27T14:48:19.695Z,102383.06
2023-03-27T14:50:23.315Z,102388.69
2023-03-27T14:52:32.293Z,102385.09
2023-03-27T14:54:44.648Z,102387.03
2023-03-27T14:56:57.496Z,102381.84
2023-03-27T14:59:02.177Z,102385.91
2023-03-27T15:01:05.366Z,102376.31
2023-03-27T15:03:16.636Z,102376.22
2023-03-27T15:05:22.137Z,102377.38
2023-03-27T15:07:30.666Z,102377.78
2023-03-27T15:09:33.110Z,102379.53
2023-03-27T15:11:39.078Z,102381.50
2023-03-27T15:13:41.117Z,102381.22
2023-03-27T15:15:50.699Z,102377.63
2023-03-27T15:18:02.956Z,102382.53
2023-03-27T15:20:14.525Z,102373.50
2023-03-27T15:22:30.165Z,102377.72
2023-03-27T15:24:43.245Z,102367.03
2023-03-27T15:26:48.242Z,102365.97
2023-03-27T15:29:04.217Z,102365.66
2023-03-27T15:31:07.559Z,102372.19
2023-03-27T15:33:22.072Z,102366.91
2023-03-27T15:35:27.153Z,102374.41
2023-03-27T15:37:40.664Z,102369.28
2023-03-27T15:40:09.484Z,102368.34
2023-03-27T15:42:14.219Z,102377.75
2023-03-27T15:44:18.608Z,102376.16
2023-03-27T15:46:26.732Z,102375.94
2023-03-27T15:48:38.106Z,102367.41
2023-03-27T15:50:39.962Z,102371.69
2023-03-27T15:52:52.945Z,102365.19
2023-03-27T15:54:56.171Z,102367.16
2023-03-27T15:57:09.259Z,102370.06
2023-03-27T15:59:15.401Z,102365.75
2023-03-27T16:01:23.400Z,102371.69
2023-03-27T16:03:27.629Z,102371.47
2023-03-27T16:05:29.661Z,102363.53
2023-03-27T16:07:42.541Z,102359.84
2023-03-27T16:09:49.544Z,102357.34
2023-03-27T16:11:54.312Z,102359.78
2023-03-27T16:13:56.219Z,102356.25
2023-03-27T16:16:01.547Z,102359.00
2023-03-27T16:18:19.605Z,102361.69
2023-03-27T16:20:24.465Z,102351.97
2023-03-27T16:22:32.323Z,102352.47
2023-03-27T16:24:34.089Z,102348.31
2023-03-27T16:26:36.207Z,102348.69
2023-03-27T16:28:37.963Z,102345.00
2023-03-27T16:30:41.474Z,102346.34
2023-03-27T16:32:43.271Z,102344.78
2023-03-27T16:34:47.789Z,102347.13
2023-03-27T16:36:49.823Z,102345.31
2023-03-27T16:38:51.641Z,102344.88
2023-03-27T16:40:53.348Z,102345.22
2023-03-27T16:42:55.341Z,102334.47
2023-03-27T16:44:57.327Z,102337.25
2023-03-27T16:46:59.045Z,102324.09
2023-03-27T16:49:00.933Z,102323.25
2023-03-27T16:51:02.608Z,102325.44
2023-03-27T16:53:04.321Z,102334.00
2023-03-27T16:55:07.718Z,102322.00
2023-03-27T16:57:10.537Z,102335.59
2023-03-27T16:59:12.225Z,102329.47
2023-03-27T17:01:14.005Z,102323.41
2023-03-27T17:03:16.462Z,102323.66
2023-03-27T17:05:18.383Z,102327.47
2023-03-27T17:07:20.308Z,102323.88
2023-03-27T17:09:22.784Z,102322.41
2023-03-27T17:11:24.794Z,102325.38
2023-03-27T17:13:26.867Z,102317.88
2023-03-27T17:15:28.564Z,102317.00
2023-03-27T17:17:30.650Z,102314.75
2023-03-27T17:19:32.502Z,102315.53
2023-03-27T17:21:34.228Z,102320.03
2023-03-27T17:23:36.430Z,102313.97
2023-03-27T17:25:38.139Z,102311.25
2023-03-27T17:27:40.135Z,102318.56
2023-03-27T17:29:42.215Z,102318.31
2023-03-27T17:31:43.965Z,102318.94
2023-03-27T17:33:45.864Z,102321.69
2023-03-27T17:35:47.534Z,102329.69
2023-03-27T17:37:49.906Z,102323.34
2023-03-27T17:39:51.791Z,102321.41
2023-03-27T17:41:53.627Z,102333.34
2023-03-27T17:43:55.362Z,102336.59
2023-03-27T17:45:57.342Z,102332.56
2023-03-27T17:47:59.331Z,102337.66
2023-03-27T17:50:01.140Z,102337.78
2023-03-27T17:52:11.185Z,102338.09
2023-03-27T17:54:13.188Z,102341.09
2023-03-27T17:56:15.438Z,102341.19
2023-03-27T17:58:21.367Z,102343.25
2023-03-27T18:00:25.559Z,102346.88
2023-03-27T18:02:27.331Z,102344.13
2023-03-27T18:04:29.379Z,102339.91
2023-03-27T18:06:31.154Z,102345.69
2023-03-27T18:08:34.266Z,102344.41
2023-03-27T18:10:36.409Z,102342.38
2023-03-27T18:12:38.681Z,102344.03
2023-03-27T18:14:43.224Z,102347.97
2023-03-27T18:16:45.383Z,102341.16
2023-03-27T18:18:48.412Z,102351.13
2023-03-27T18:20:56.996Z,102353.91
2023-03-27T18:22:59.329Z,102354.09
2023-03-27T18:25:01.469Z,102360.28
2023-03-27T18:27:04.101Z,102353.41
2023-03-27T18:29:07.020Z,102349.00
2023-03-27T18:31:12.036Z,102356.72
2023-03-27T18:33:14.195Z,102357.72
2023-03-27T18:35:18.746Z,102357.59
2023-03-27T18:37:20.982Z,102352.44
2023-03-27T18:39:23.042Z,102361.03
2023-03-27T18:41:25.138Z,102360.03
2023-03-27T18:43:27.416Z,102359.09
2023-03-27T18:45:29.444Z,102356.47
2023-03-27T18:47:31.651Z,102360.41
2023-03-27T18:49:33.739Z,102356.53
2023-03-27T18:51:35.799Z,102355.94
2023-03-27T18:53:37.756Z,102356.81
2023-03-27T18:55:39.717Z,102351.75
2023-03-27T18:57:45.375Z,102354.69
2023-03-27T18:59:49.354Z,102348.41
2023-03-27T19:01:51.289Z,102345.44
2023-03-27T19:03:53.196Z,102354.66
2023-03-27T19:05:59.851Z,102353.25
2023-03-27T19:08:04.042Z,102351.69
2023-03-27T19:10:07.313Z,102352.84
2023-03-27T19:12:10.494Z,102357.81
2023-03-27T19:14:12.729Z,102357.59
2023-03-27T19:16:23.330Z,102361.28
2023-03-27T19:18:28.591Z,102359.66
2023-03-27T19:20:30.851Z,102351.34
2023-03-27T19:22:32.834Z,102364.81
2023-03-27T19:24:35.429Z,102362.03
2023-03-27T19:26:37.577Z,102361.56
2023-03-27T19:28:40.527Z,102358.63
2023-03-27T19:30:43.038Z,102355.56
2023-03-27T19:32:45.367Z,102355.84
2023-03-27T19:34:47.451Z,102357.75
2023-03-27T19:36:51.078Z,102355.00
2023-03-27T19:38:54.466Z,102348.78
2023-03-27T19:40:56.905Z,102350.25
2023-03-27T19:42:59.308Z,102357.38
2023-03-27T19:45:01.359Z,102362.31
2023-03-27T19:47:03.888Z,102356.84
2023-03-27T19:49:06.014Z,102374.47
2023-03-27T19:51:08.009Z,102379.28
2023-03-27T19:53:10.184Z,102371.69
2023-03-27T19:55:12.093Z,102368.31
2023-03-27T19:57:14.063Z,102365.22
2023-03-27T19:59:28.211Z,102374.75
2023-03-27T20:01:32.838Z,102375.63
2023-03-27T20:03:38.779Z,102373.28
2023-03-27T20:05:41.405Z,102374.00
2023-03-27T20:07:43.484Z,102387.75
2023-03-27T20:09:45.768Z,102379.28
2023-03-27T20:11:48.019Z,102375.53
2023-03-27T20:13:56.533Z,102375.97
2023-03-27T20:15:59.347Z,102383.41
2023-03-27T20:18:02.729Z,102380.63
2023-03-27T20:20:06.266Z,102385.69
2023-03-27T20:22:10.279Z,102385.50
2023-03-27T20:24:17.471Z,102384.16
2023-03-27T20:26:22.551Z,102387.94
2023-03-27T20:28:24.502Z,102391.47
2023-03-27T20:30:27.424Z,102389.69
2023-03-27T20:32:30.900Z,102391.06
2023-03-27T20:34:33.169Z,102392.50
2023-03-27T20:36:35.828Z,102399.97
2023-03-27T20:38:37.853Z,102387.59
2023-03-27T20:40:52.997Z,102394.91
2023-03-27T20:43:03.628Z,102398.44
2023-03-27T20:45:06.980Z,102390.03
2023-03-27T20:47:12.112Z,102394.06
2023-03-27T20:49:37.448Z,102402.47
2023-03-27T20:51:42.790Z,102401.41
2023-03-27T20:53:54.449Z,102399.81
2023-03-27T20:56:00.540Z,102394.19
2023-03-27T20:58:03.259Z,102400.06
2023-03-27T21:00:07.927Z,102391.78
2023-03-27T21:02:17.349Z,102391.69
2023-03-27T21:04:19.395Z,102397.50
2023-03-27T21:06:22.772Z,102392.50
2023-03-27T21:08:25.773Z,102398.69
2023-03-27T21:10:27.856Z,102399.41
2023-03-27T21:12:29.834Z,102389.00
2023-03-27T21:14:31.713Z,102395.50
2023-03-27T21:16:33.817Z,102391.31
2023-03-27T21:18:36.495Z,102390.34
2023-03-27T21:20:38.521Z,102381.53
2023-03-27T21:22:40.491Z,102386.97
2023-03-27T21:24:42.407Z,102387.00
2023-03-27T21:26:46.664Z,102386.72
2023-03-27T21:28:52.904Z,102382.88
2023-03-27T21:30:54.666Z,102383.81
2023-03-27T21:32:56.859Z,102384.56
2023-03-27T21:34:58.963Z,102378.59
2023-03-27T21:37:02.671Z,102376.28
2023-03-27T21:39:05.018Z,102379.44
2023-03-27T21:41:07.531Z,102378.25
2023-03-27T21:43:09.476Z,102377.59
2023-03-27T21:45:11.425Z,102375.41
2023-03-27T21:47:13.267Z,102374.97
2023-03-27T21:49:15.408Z,102368.66
2023-03-27T21:51:17.663Z,102373.88
2023-03-27T21:53:19.524Z,102374.97
2023-03-27T21:55:21.552Z,102375.31
2023-03-27T21:57:25.080Z,102379.97
2023-03-27T21:59:31.082Z,102376.38
2023-03-27T22:01:33.136Z,102375.63
2023-03-27T22:03:39.787Z,102379.66
2023-03-27T22:05:42.245Z,102375.72
2023-03-27T22:07:45.677Z,102376.88
2023-03-27T22:09:47.658Z,102370.22
2023-03-27T22:11:49.606Z,102375.84
2023-03-27T22:13:57.378Z,102374.84
2023-03-27T22:16:03.174Z,102362.53
2023-03-27T22:18:08.979Z,102364.34
2023-03-27T22:20:11.632Z,102364.19
2023-03-27T22:22:13.484Z,102369.03
2023-03-27T22:24:15.479Z,102364.00
2023-03-27T22:26:19.177Z,102359.91
2023-03-27T22:28:24.690Z,102357.47
2023-03-27T22:30:27.812Z,102363.56
2023-03-27T22:32:30.137Z,102361.00
2023-03-27T22:34:32.085Z,102352.09
2023-03-27T22:36:38.427Z,102358.13
2023-03-27T22:38:41.679Z,102352.72
2023-03-27T22:40:44.388Z,102355.72
2023-03-27T22:42:46.172Z,102359.59
2023-03-27T22:44:47.958Z,102359.25
2023-03-27T22:46:49.906Z,102365.06
2023-03-27T22:48:58.721Z,102358.53
2023-03-27T22:51:01.264Z,102361.72
2023-03-27T22:53:03.233Z,102356.16
2023-03-27T22:55:05.441Z,102353.41
2023-03-27T22:57:07.505Z,102356.25
2023-03-27T22:59:09.340Z,102345.19
2023-03-27T23:01:11.349Z,102345.03
2023-03-27T23:03:13.544Z,102342.63
2023-03-27T23:05:15.660Z,102341.94
2023-03-27T23:07:17.350Z,102348.78
2023-03-27T23:09:19.245Z,102340.16
2023-03-27T23:11:21.223Z,102337.78
2023-03-27T23:13:23.871Z,102340.59
2023-03-27T23:15:30.160Z,102339.19
2023-03-27T23:17:32.272Z,102341.75
2023-03-27T23:19:34.104Z,102339.44
2023-03-27T23:21:36.079Z,102336.44
2023-03-27T23:23:39.376Z,102339.66
2023-03-27T23:25:42.490Z,102344.25
2023-03-27T23:27:44.367Z,102339.44
2023-03-27T23:29:48.076Z,102331.84
2023-03-27T23:31:49.912Z,102347.16
2023-03-27T23:33:51.789Z,102332.66
2023-03-27T23:35:59.972Z,102335.47
2023-03-27T23:38:02.104Z,102333.09
2023-03-27T23:40:04.897Z,102327.00
2023-03-27T23:42:06.679Z,102330.91
2023-03-27T23:44:08.441Z,102324.34
2023-03-27T23:46:15.973Z,102322.41
2023-03-27T23:48:18.032Z,102327.00
2023-03-27T23:50:19.737Z,102329.03
2023-03-27T23:52:21.424Z,102329.91
2023-03-27T23:54:23.276Z,102332.13
2023-03-27T23:56:24.928Z,102331.00
2023-03-27T23:58:28.857Z,102327.81
